• Join FlightAware (Why Join?)
  • Login
  • US Flag 
05:23AM EDT


 

Airport Tracker/Info


-or-


 

Live Flight TrackerFlight Track Log ✈ UAL582 ✈ 13-May-2013 ✈ CYYZ - KORD

Flight Track Log - Related Links

Times and Time Zones

All times are in EDT time to prevent confusion due to time zone crossing. See the UAL582 flight status page for this flight to view local times or setup timezone preferences in your user account.

Time Position Orientation Groundspeed Altitude Reporting Facility
EDT Latitude Longitude Course Direction KTS MPH feet Rate Location/Type
05:38PM 43.6667 -79.6333 277° West 20 23 1,200  Level Toronto Center
05:39PM 43.6333 -79.6833 227° Southwest 190 219 3,500 2,340 Climbing Toronto Center
05:40PM 43.6000 -79.7667 241° Southwest 260 299 5,900 1,740 Climbing Toronto Center
05:41PM 43.7014 -79.9832 277° West  Level FlightAware Approximate
05:41PM 43.5667 -79.8333 235° Southwest 250 288 7,000  Level Toronto Center
05:42PM 43.7117 -80.1065 277° West  Level FlightAware Approximate
05:42PM 43.5833 -79.9333 283° West 250 288 7,700  Level Toronto Center
05:43PM 43.7179 -80.2302 277° West  Level FlightAware Approximate
05:43PM 43.6167 -80.0167 299° West 270 311 11,000  Level Toronto Center
05:44PM 43.7305 -80.3691 277° West  Level FlightAware Approximate
05:44PM 43.6333 -80.1333 281° West 310 357 13,800  Level Toronto Center
05:45PM 43.6667 -80.2833 287° West 330 380 16,700 2,640 Climbing Toronto Center
05:46PM 43.7000 -80.4000 292° West 350 403 19,100 2,400 Climbing Toronto Center
05:47PM 43.7333 -80.5333 289° West 370 426 21,600 2,340 Climbing Toronto Center
05:48PM 43.7167 -80.6667 260° West 390 449 23,800 1,740 Climbing Toronto Center
05:49PM 43.6667 -80.8333 248° West 410 472 25,100 1,740 Climbing Toronto Center
05:50PM 43.6333 -81.0000 255° West 420 483 27,300 1,680 Climbing Toronto Center
05:51PM 43.6000 -81.1500 253° West 430 495 28,500 1,380 Climbing Toronto Center
05:52PM 43.5667 -81.3167 255° West 450 518 30,100 1,620 Climbing Toronto Center
05:53PM 43.5500 -81.4667 261° West 430 495 31,800 1,500 Climbing Toronto Center
05:54PM 43.5500 -81.6333 270° West 420 483 33,100 1,440 Climbing Toronto Center
05:55PM 43.5500 -81.8000 270° West 420 483 34,700 1,500 Climbing Toronto Center
05:56PM 43.5333 -81.9500 261° West 420 483 36,100 1,200 Climbing Toronto Center
05:57PM 43.4833 -82.1167 248° West 450 518 37,200 1,020 Climbing Toronto Center
05:57PM 43.4828 -82.1767 269° West 430 495 37,500 600 Climbing Cleveland Center
05:58PM 43.4306 -82.3356 246° West 448 516 38,000 120 Climbing Cleveland Center
05:59PM 43.3800 -82.4939 246° West 453 521 37,800 -600 Descending Cleveland Center
06:00PM 43.3333 -82.5833 234° Southwest 460 529 37,000 -1,140 Descending Toronto Center
06:00PM 43.3272 -82.6550 263° West 459 528 36,700 -1,080 Descending Cleveland Center
06:01PM 43.2764 -82.8158 247° West 459 528 35,600 -1,140 Descending Cleveland Center
06:02PM 43.2211 -82.9792 245° Southwest 459 528 34,500 -1,080 Descending Cleveland Center
06:03PM 43.1719 -83.1308 246° West 476 548 33,500 -1,080 Descending Cleveland Center
06:04PM 43.1203 -83.2911 246° West 476 548 32,400 -780 Descending Cleveland Center
06:05PM 43.0664 -83.4536 246° West 471 542 32,000 -240 Descending Cleveland Center
06:06PM 43.0125 -83.6100 245° Southwest 471 542 32,000  Level Cleveland Center
06:07PM 42.9661 -83.7753 249° West 471 542 32,000  Level Cleveland Center
06:08PM 42.9469 -83.9389 261° West 452 520 32,000  Level Cleveland Center
06:09PM 42.9317 -84.1025 263° West 447 514 32,000  Level Cleveland Center
06:10PM 42.9142 -84.2631 262° West 442 509 32,000  Level Cleveland Center
06:11PM 42.9031 -84.4036 264° West 432 497 32,000  Level Chicago Center
06:12PM 42.8822 -84.5986 262° West 434 499 32,000  Level Chicago Center
06:13PM 42.8647 -84.7631 262° West 439 505 32,000  Level Chicago Center
06:14PM 42.8483 -84.9278 262° West 440 506 32,000  Level Chicago Center
06:15PM 42.8306 -85.0931 262° West 442 509 32,000 -540 Level Chicago Center
06:16PM 42.8136 -85.2567 262° West 438 504 31,000 -1,200 Descending Chicago Center
06:17PM 42.7947 -85.4203 261° West 437 503 29,500 -2,100 Descending Chicago Center
06:18PM 42.7658 -85.6086 258° West 425 489 26,700 -1,740 Descending Chicago Center
06:19PM 42.7381 -85.7614 256° West 415 478 26,000 -780 Descending Chicago Center
06:21PM 42.7114 -85.9133 257° West 411 473 25,200 -1,620 Descending Chicago Center
06:22PM 42.6844 -86.0622 256° West 403 464 22,700 -2,280 Descending Chicago Center
06:23PM 42.6583 -86.2039 256° West 390 449 20,600 -1,320 Descending Chicago Center
06:24PM 42.6319 -86.3392 255° West 375 432 20,000 -960 Descending Chicago Center
06:25PM 42.6067 -86.4764 256° West 373 429 18,700 -1,680 Descending Chicago Center
06:26PM 42.5808 -86.6092 255° West 367 422 16,600 -2,160 Descending Chicago Center
06:27PM 42.5522 -86.7614 256° West 349 402 14,300 -2,160 Descending Chicago Center
06:28PM 42.5197 -86.8792 250° West 339 390 12,200 -1,380 Descending Chicago Center
06:29PM 42.4906 -86.9850 250° West 306 352 11,500 -1,200 Descending Chicago Center
06:30PM 42.4628 -87.0794 248° West 275 316 9,700 -1,260 Descending Chicago Center
06:31PM 42.4367 -87.1761 250° West 274 315 9,000 -360 Descending Chicago Center
06:32PM 42.4103 -87.2731 250° West 275 316 9,000 -180 Level Chicago Center
06:33PM 42.3778 -87.3864 249° West 271 312 8,700 -960 Descending Chicago Center
06:34PM 42.3406 -87.4792 242° Southwest 273 314 7,100 -1,380 Descending Chicago Center
06:35PM 42.3006 -87.5594 236° Southwest 262 302 5,900 -1,020 Descending Chicago Center
06:36PM 42.2475 -87.6192 220° Southwest 251 289 5,000 -480 Descending Chicago Center
06:37PM 42.1933 -87.6781 219° Southwest 251 289 5,000  Level Chicago Center